createdAt,value
2022-11-05T00:00:49.922Z,10.90
2022-11-05T00:03:56.212Z,10.90
2022-11-05T00:07:02.434Z,10.90
2022-11-05T00:09:53.364Z,10.90
2022-11-05T00:12:59.808Z,10.90
2022-11-05T00:16:07.384Z,10.90
2022-11-05T00:19:07.579Z,11.00
2022-11-05T00:22:13.815Z,11.00
2022-11-05T00:25:20.518Z,10.90
2022-11-05T00:28:09.278Z,10.80
2022-11-05T00:31:04.555Z,10.90
2022-11-05T00:33:53.166Z,10.90
2022-11-05T00:36:41.787Z,10.90
2022-11-05T00:39:30.403Z,10.90
2022-11-05T00:42:37.732Z,10.90
2022-11-05T00:45:26.459Z,11.00
2022-11-05T00:48:33.890Z,10.90
2022-11-05T00:51:22.598Z,10.80
2022-11-05T00:54:11.514Z,10.90
2022-11-05T00:57:04.501Z,10.90
2022-11-05T00:59:53.544Z,11.00
2022-11-05T01:02:42.285Z,10.90
2022-11-05T01:05:33.334Z,10.90
2022-11-05T01:08:23.829Z,10.90
2022-11-05T01:11:33.103Z,10.90
2022-11-05T01:14:22.124Z,10.90
2022-11-05T01:17:10.806Z,10.70
2022-11-05T01:19:59.424Z,10.70
2022-11-05T01:22:49.444Z,10.80
2022-11-05T01:25:38.359Z,10.70
2022-11-05T01:28:27.046Z,10.70
2022-11-05T01:31:15.710Z,10.70
2022-11-05T01:34:04.370Z,10.70
2022-11-05T01:36:53.012Z,10.60
2022-11-05T01:39:43.071Z,10.70
2022-11-05T01:42:33.825Z,10.70
2022-11-05T01:45:25.566Z,10.70
2022-11-05T01:48:18.246Z,10.80
2022-11-05T01:51:09.990Z,10.80
2022-11-05T01:54:02.623Z,10.80
2022-11-05T01:56:57.222Z,10.90
2022-11-05T01:59:49.679Z,10.90
2022-11-05T02:02:38.629Z,10.80
2022-11-05T02:05:27.720Z,10.80
2022-11-05T02:08:24.366Z,10.80
2022-11-05T02:11:15.554Z,10.90
2022-11-05T02:14:06.106Z,10.80
2022-11-05T02:17:02.189Z,10.80
2022-11-05T02:20:17.842Z,10.70
2022-11-05T02:23:33.932Z,10.70
2022-11-05T02:27:03.073Z,10.60
2022-11-05T02:30:09.922Z,10.60
2022-11-05T02:33:11.481Z,10.50
2022-11-05T02:36:16.181Z,10.50
2022-11-05T02:39:20.553Z,10.50
2022-11-05T02:42:17.661Z,10.40
2022-11-05T02:45:16.588Z,10.50
2022-11-05T02:48:14.343Z,10.40
2022-11-05T02:51:10.253Z,10.40
2022-11-05T02:54:04.486Z,10.50
2022-11-05T02:56:55.247Z,10.50
2022-11-05T02:59:43.832Z,10.50
2022-11-05T03:02:33.445Z,10.40
2022-11-05T03:05:30.560Z,10.40
2022-11-05T03:08:30.986Z,10.40
2022-11-05T03:11:21.787Z,10.40
2022-11-05T03:14:21.596Z,10.40
2022-11-05T03:17:19.644Z,10.30
2022-11-05T03:20:16.299Z,10.40
2022-11-05T03:23:13.627Z,10.30
2022-11-05T03:26:07.831Z,10.40
2022-11-05T03:29:01.637Z,10.40
2022-11-05T03:31:53.379Z,10.40
2022-11-05T03:34:45.758Z,10.50
2022-11-05T03:37:38.385Z,10.40
2022-11-05T03:40:32.231Z,10.40
2022-11-05T03:43:24.208Z,10.40
2022-11-05T03:46:18.777Z,10.50
2022-11-05T03:49:13.930Z,10.40
2022-11-05T03:52:08.321Z,10.40
2022-11-05T03:54:57.416Z,10.40
2022-11-05T03:57:50.808Z,10.20
2022-11-05T04:00:39.612Z,10.20
2022-11-05T04:03:28.421Z,10.30
2022-11-05T04:06:34.561Z,10.30
2022-11-05T04:09:40.513Z,10.30
2022-11-05T04:12:46.648Z,10.40
2022-11-05T04:15:57.009Z,10.40
2022-11-05T04:18:44.694Z,10.30
2022-11-05T04:21:50.593Z,10.30
2022-11-05T04:24:39.370Z,10.30
2022-11-05T04:27:27.996Z,10.30
2022-11-05T04:30:21.853Z,10.30
2022-11-05T04:33:14.318Z,10.20
2022-11-05T04:36:03.344Z,10.10
2022-11-05T04:38:52.046Z,10.10
2022-11-05T04:41:40.730Z,9.90
2022-11-05T04:44:29.469Z,9.90
2022-11-05T04:47:18.292Z,10.00
2022-11-05T04:50:10.641Z,9.90
2022-11-05T04:52:59.531Z,10.00
2022-11-05T04:55:48.210Z,10.00
2022-11-05T04:58:40.618Z,10.10
2022-11-05T05:01:29.641Z,10.10
2022-11-05T05:04:18.447Z,10.00
2022-11-05T05:07:08.515Z,10.00
2022-11-05T05:09:57.240Z,10.10
2022-11-05T05:12:45.957Z,10.10
2022-11-05T05:15:34.660Z,10.10
2022-11-05T05:18:24.218Z,10.10
2022-11-05T05:21:30.278Z,10.10
2022-11-05T05:24:21.749Z,10.00
2022-11-05T05:27:10.559Z,10.00
2022-11-05T05:29:59.700Z,10.00
2022-11-05T05:32:48.415Z,10.00
2022-11-05T05:35:37.066Z,10.00
2022-11-05T05:38:25.977Z,9.80
2022-11-05T05:41:16.260Z,9.70
2022-11-05T05:44:06.435Z,9.70
2022-11-05T05:46:55.627Z,9.70
2022-11-05T05:49:44.303Z,9.70
2022-11-05T05:52:33.512Z,9.80
2022-11-05T05:55:22.374Z,9.70
2022-11-05T05:58:12.551Z,9.70
2022-11-05T06:01:03.013Z,9.70
2022-11-05T06:03:51.690Z,9.50
2022-11-05T06:06:40.392Z,9.50
2022-11-05T06:09:29.064Z,9.70
2022-11-05T06:12:17.813Z,9.60
2022-11-05T06:15:08.878Z,9.60
2022-11-05T06:17:57.553Z,9.60
2022-11-05T06:20:46.209Z,9.80
2022-11-05T06:23:35.792Z,9.80
2022-11-05T06:26:24.632Z,9.60
2022-11-05T06:29:13.336Z,9.70
2022-11-05T06:32:03.718Z,9.70
2022-11-05T06:34:52.541Z,9.70
2022-11-05T06:37:41.319Z,9.80
2022-11-05T06:40:30.335Z,9.80
2022-11-05T06:43:19.020Z,9.80
2022-11-05T06:46:08.344Z,9.80
2022-11-05T06:48:58.445Z,9.80
2022-11-05T06:51:47.173Z,9.90
2022-11-05T06:54:37.132Z,9.90
2022-11-05T06:57:26.020Z,9.90
2022-11-05T07:00:16.090Z,9.90
2022-11-05T07:03:05.824Z,9.90
2022-11-05T07:05:56.225Z,9.90
2022-11-05T07:08:45.076Z,9.90
2022-11-05T07:11:33.872Z,10.00
2022-11-05T07:14:22.552Z,10.00
2022-11-05T07:17:11.192Z,10.00
2022-11-05T07:19:59.889Z,10.00
2022-11-05T07:22:49.966Z,10.00
2022-11-05T07:25:39.154Z,10.00
2022-11-05T07:28:27.963Z,10.10
2022-11-05T07:31:16.734Z,10.10
2022-11-05T07:34:05.675Z,10.10
2022-11-05T07:36:54.415Z,10.00
2022-11-05T07:39:44.551Z,10.00
2022-11-05T07:42:35.751Z,10.00
2022-11-05T07:45:25.863Z,9.90
2022-11-05T07:48:14.591Z,9.90
2022-11-05T07:51:03.258Z,9.90
2022-11-05T07:53:51.889Z,9.90
2022-11-05T07:56:41.980Z,10.00
2022-11-05T07:59:31.006Z,10.10
2022-11-05T08:02:19.915Z,10.10
2022-11-05T08:05:09.743Z,10.00
2022-11-05T08:07:59.569Z,10.10
2022-11-05T08:10:48.676Z,10.00
2022-11-05T08:13:39.350Z,10.10
2022-11-05T08:16:28.055Z,10.10
2022-11-05T08:19:16.738Z,10.30
2022-11-05T08:22:05.457Z,10.20
2022-11-05T08:24:54.152Z,10.20
2022-11-05T08:27:42.965Z,10.30
2022-11-05T08:30:34.260Z,10.30
2022-11-05T08:33:25.065Z,10.30
2022-11-05T08:36:13.901Z,10.30
2022-11-05T08:39:02.800Z,10.30
2022-11-05T08:41:51.469Z,10.40
2022-11-05T08:44:40.142Z,10.40
2022-11-05T08:47:31.041Z,10.40
2022-11-05T08:50:19.730Z,10.40
2022-11-05T08:53:09.646Z,10.40
2022-11-05T08:56:00.689Z,10.40
2022-11-05T08:58:49.376Z,10.50
2022-11-05T09:01:38.859Z,10.50
2022-11-05T09:04:29.004Z,10.60
2022-11-05T09:07:17.978Z,10.50
2022-11-05T09:10:07.671Z,10.50
2022-11-05T09:12:56.779Z,10.50
2022-11-05T09:15:45.686Z,10.60
2022-11-05T09:18:35.275Z,10.60
2022-11-05T09:21:25.714Z,10.70
2022-11-05T09:24:14.426Z,10.70
2022-11-05T09:27:03.191Z,10.60
2022-11-05T09:29:51.913Z,10.70
2022-11-05T09:32:41.040Z,10.70
2022-11-05T09:35:29.696Z,10.70
2022-11-05T09:38:20.163Z,10.70
2022-11-05T09:41:14.104Z,10.80
2022-11-05T09:44:06.539Z,10.80
2022-11-05T09:46:59.774Z,10.80
2022-11-05T09:49:50.654Z,10.80
2022-11-05T09:52:40.064Z,10.90
2022-11-05T09:55:34.171Z,10.90
2022-11-05T09:58:29.080Z,10.80
2022-11-05T10:01:24.947Z,10.90
2022-11-05T10:04:19.294Z,11.00
2022-11-05T10:07:12.828Z,11.00
2022-11-05T10:10:05.515Z,11.00
2022-11-05T10:12:58.710Z,11.10
2022-11-05T10:15:55.149Z,11.00
2022-11-05T10:18:49.267Z,11.00
2022-11-05T10:22:04.744Z,11.10
2022-11-05T10:24:49.479Z,11.10
2022-11-05T10:27:39.572Z,11.20
2022-11-05T10:30:29.844Z,11.20
2022-11-05T10:33:29.058Z,11.10
2022-11-05T10:36:23.832Z,11.20
2022-11-05T10:39:15.201Z,11.20
2022-11-05T10:42:31.287Z,11.20
2022-11-05T10:45:33.263Z,11.20
2022-11-05T10:48:52.951Z,11.30
2022-11-05T10:51:41.856Z,11.30
2022-11-05T10:54:35.637Z,11.20
2022-11-05T10:57:36.020Z,11.30
2022-11-05T11:00:28.462Z,11.30
2022-11-05T11:06:30.617Z,11.30
2022-11-05T11:09:23.960Z,11.40
2022-11-05T11:12:21.819Z,11.30
2022-11-05T11:15:16.532Z,11.40
2022-11-05T11:18:33.369Z,11.30
2022-11-05T11:21:26.366Z,11.20
2022-11-05T11:24:23.544Z,11.20
2022-11-05T11:27:16.125Z,11.20
2022-11-05T11:30:08.533Z,11.30
2022-11-05T11:33:05.177Z,11.40
2022-11-05T11:35:54.037Z,11.30
2022-11-05T11:38:44.115Z,11.30
2022-11-05T11:41:37.309Z,11.30
2022-11-05T11:44:30.349Z,11.20
2022-11-05T11:47:21.915Z,11.20
2022-11-05T11:50:36.335Z,11.30
2022-11-05T11:53:31.284Z,11.30
2022-11-05T11:56:22.015Z,11.20
2022-11-05T11:59:35.125Z,11.20
2022-11-05T12:02:48.366Z,11.20
2022-11-05T12:05:43.190Z,11.40
2022-11-05T12:08:45.593Z,11.30
2022-11-05T12:11:40.463Z,11.20
2022-11-05T12:14:46.071Z,11.20
2022-11-05T12:17:48.174Z,11.20
2022-11-05T12:21:05.529Z,11.20
2022-11-05T12:24:20.952Z,11.10
2022-11-05T12:27:20.153Z,11.20
2022-11-05T12:30:14.058Z,11.20
2022-11-05T12:33:26.750Z,11.30
2022-11-05T12:36:28.374Z,11.30
2022-11-05T12:39:51.833Z,11.20
2022-11-05T12:42:57.309Z,11.30
2022-11-05T12:45:54.213Z,11.40
2022-11-05T12:48:58.049Z,11.30
2022-11-05T12:52:00.615Z,11.20
2022-11-05T12:55:04.305Z,11.30
2022-11-05T12:57:55.774Z,11.20
2022-11-05T13:00:51.209Z,11.10
2022-11-05T13:03:46.325Z,11.10
2022-11-05T13:06:40.423Z,11.00
2022-11-05T13:09:34.720Z,11.00
2022-11-05T13:12:27.667Z,11.10
2022-11-05T13:15:25.913Z,11.00
2022-11-05T13:18:21.257Z,11.00
2022-11-05T13:21:11.235Z,10.90
2022-11-05T13:24:06.258Z,10.70
2022-11-05T13:26:58.169Z,10.50
2022-11-05T13:29:51.481Z,10.50
2022-11-05T13:32:43.155Z,10.60
2022-11-05T13:35:43.368Z,10.70
2022-11-05T13:38:51.808Z,10.70
2022-11-05T13:41:54.841Z,10.90
2022-11-05T13:45:23.760Z,10.70
2022-11-05T13:48:35.925Z,10.90
2022-11-05T13:51:51.420Z,11.00
2022-11-05T13:55:09.889Z,11.10
2022-11-05T13:58:23.625Z,10.90
2022-11-05T14:01:21.353Z,10.90
2022-11-05T14:04:17.917Z,10.90
2022-11-05T14:07:11.308Z,10.90
2022-11-05T14:10:02.692Z,10.80
2022-11-05T14:12:53.988Z,10.80
2022-11-05T14:15:56.728Z,10.70
2022-11-05T14:18:46.814Z,10.60
2022-11-05T14:21:49.604Z,10.80
2022-11-05T14:24:44.336Z,10.90
2022-11-05T14:27:47.366Z,10.80
2022-11-05T14:30:46.868Z,10.70
2022-11-05T14:33:40.430Z,10.70
2022-11-05T14:36:35.751Z,10.60
2022-11-05T14:39:27.693Z,10.60
2022-11-05T14:42:22.097Z,10.60
2022-11-05T14:45:28.401Z,10.60
2022-11-05T14:48:31.773Z,10.60
2022-11-05T14:51:27.359Z,10.60
2022-11-05T14:54:25.336Z,10.70
2022-11-05T14:57:16.015Z,10.60
2022-11-05T15:00:12.369Z,10.60
2022-11-05T15:03:02.800Z,10.60
2022-11-05T15:05:53.026Z,10.70
2022-11-05T15:09:05.639Z,10.70
2022-11-05T15:12:15.488Z,10.80
2022-11-05T15:15:21.990Z,10.80
2022-11-05T15:18:20.155Z,10.80
2022-11-05T15:21:14.635Z,10.70
2022-11-05T15:24:05.058Z,10.70
2022-11-05T15:27:01.549Z,10.70
2022-11-05T15:29:50.315Z,10.80
2022-11-05T15:32:40.929Z,10.80
2022-11-05T15:35:31.515Z,10.60
2022-11-05T15:38:34.131Z,10.50
2022-11-05T15:41:25.964Z,10.60
2022-11-05T15:44:29.670Z,10.60
2022-11-05T15:47:22.071Z,10.60
2022-11-05T15:50:16.227Z,10.50
2022-11-05T15:53:41.738Z,10.60
2022-11-05T15:56:29.119Z,10.60
2022-11-05T15:59:20.079Z,10.50
2022-11-05T16:02:29.954Z,10.60
2022-11-05T16:05:23.662Z,10.60
2022-11-05T16:08:18.032Z,10.70
2022-11-05T16:11:07.017Z,10.70
2022-11-05T16:14:13.578Z,10.70
2022-11-05T16:17:18.583Z,10.70
2022-11-05T16:20:21.752Z,10.70
2022-11-05T16:23:25.167Z,10.70
2022-11-05T16:29:52.973Z,10.80
2022-11-05T16:32:41.614Z,10.80
2022-11-05T16:35:31.697Z,10.70
2022-11-05T16:38:21.582Z,10.70
2022-11-05T16:41:14.818Z,10.70
2022-11-05T16:44:03.436Z,10.60
2022-11-05T16:46:52.278Z,10.70
2022-11-05T16:49:41.083Z,10.80
2022-11-05T16:52:31.502Z,10.90
2022-11-05T16:55:20.604Z,10.90
2022-11-05T16:58:19.465Z,10.90
2022-11-05T17:01:12.894Z,10.90
2022-11-05T17:04:01.908Z,10.90
2022-11-05T17:06:50.729Z,10.80
2022-11-05T17:09:40.843Z,10.70
2022-11-05T17:12:29.604Z,10.70
2022-11-05T17:15:24.903Z,10.70
2022-11-05T17:18:18.139Z,10.90
2022-11-05T17:21:08.790Z,10.80
2022-11-05T17:23:57.556Z,10.80
2022-11-05T17:26:47.613Z,10.90
2022-11-05T17:29:36.323Z,10.90
2022-11-05T17:32:24.976Z,11.00
2022-11-05T17:35:14.382Z,11.10
2022-11-05T17:38:03.063Z,11.10
2022-11-05T17:40:52.198Z,11.10
2022-11-05T17:43:42.845Z,11.20
2022-11-05T17:46:31.601Z,11.20
2022-11-05T17:49:20.239Z,11.10
2022-11-05T17:52:08.877Z,11.20
2022-11-05T17:54:57.674Z,11.10
2022-11-05T17:57:47.838Z,11.10
2022-11-05T18:00:38.397Z,11.10
2022-11-05T18:03:27.099Z,11.10
2022-11-05T18:06:15.672Z,11.10
2022-11-05T18:09:04.586Z,11.10
2022-11-05T18:11:53.467Z,11.20
2022-11-05T18:14:42.170Z,11.20
2022-11-05T18:17:32.672Z,11.30
2022-11-05T18:20:21.836Z,11.30
2022-11-05T18:23:10.895Z,11.30
2022-11-05T18:25:59.643Z,11.20
2022-11-05T18:28:48.281Z,11.30
2022-11-05T18:31:37.004Z,11.20
2022-11-05T18:34:27.114Z,11.20
2022-11-05T18:37:16.214Z,11.20
2022-11-05T18:40:05.104Z,11.30
2022-11-05T18:42:53.802Z,11.30
2022-11-05T18:45:42.460Z,11.20
2022-11-05T18:48:31.239Z,11.20
2022-11-05T18:51:21.964Z,11.20
2022-11-05T18:54:10.579Z,11.30
2022-11-05T18:56:59.312Z,11.20
2022-11-05T18:59:47.985Z,11.10
2022-11-05T19:02:36.728Z,11.00
2022-11-05T19:05:29.982Z,11.00
2022-11-05T19:08:20.617Z,11.00
2022-11-05T19:11:10.864Z,11.10
2022-11-05T19:13:59.922Z,11.10
2022-11-05T19:16:48.568Z,11.20
2022-11-05T19:19:40.693Z,11.10
2022-11-05T19:22:30.036Z,11.10
2022-11-05T19:25:20.312Z,11.10
2022-11-05T19:28:09.277Z,11.10
2022-11-05T19:30:58.035Z,11.10
2022-11-05T19:33:48.970Z,11.10
2022-11-05T19:36:37.689Z,11.10
2022-11-05T19:39:26.391Z,11.10
2022-11-05T19:42:16.782Z,11.10
2022-11-05T19:45:30.071Z,11.10
2022-11-05T19:48:19.465Z,11.10
2022-11-05T19:51:09.739Z,11.10
2022-11-05T19:54:03.363Z,11.10
2022-11-05T19:56:52.742Z,11.20
2022-11-05T19:59:42.751Z,11.20
2022-11-05T20:02:31.601Z,11.10
2022-11-05T20:05:20.435Z,11.20
2022-11-05T20:08:09.518Z,11.10
2022-11-05T20:10:59.287Z,11.10
2022-11-05T20:13:47.898Z,11.10
2022-11-05T20:16:39.356Z,11.10
2022-11-05T20:19:28.096Z,11.20
2022-11-05T20:22:16.898Z,11.20
2022-11-05T20:25:06.264Z,11.20
2022-11-05T20:27:54.881Z,11.20
2022-11-05T20:30:43.711Z,11.10
2022-11-05T20:33:34.000Z,11.10
2022-11-05T20:36:24.748Z,11.10
2022-11-05T20:39:13.501Z,11.10
2022-11-05T20:42:02.159Z,11.20
2022-11-05T20:44:50.810Z,11.20
2022-11-05T20:47:39.783Z,11.20
2022-11-05T20:50:30.134Z,11.20
2022-11-05T20:53:19.196Z,11.10
2022-11-05T20:56:09.737Z,11.10
2022-11-05T20:58:59.783Z,11.10
2022-11-05T21:01:48.679Z,11.20
2022-11-05T21:04:37.707Z,11.20
2022-11-05T21:07:28.123Z,11.20
2022-11-05T21:10:17.145Z,11.20
2022-11-05T21:13:05.792Z,11.20
2022-11-05T21:15:57.322Z,11.10
2022-11-05T21:18:46.864Z,11.10
2022-11-05T21:21:40.083Z,11.10
2022-11-05T21:24:31.271Z,11.10
2022-11-05T21:27:20.116Z,11.10
2022-11-05T21:30:10.068Z,11.20
2022-11-05T21:32:58.723Z,11.20
2022-11-05T21:35:49.550Z,11.20
2022-11-05T21:38:38.755Z,11.10
2022-11-05T21:41:29.002Z,11.10
2022-11-05T21:44:17.971Z,11.10
2022-11-05T21:47:06.939Z,11.10
2022-11-05T21:49:55.764Z,11.10
2022-11-05T21:53:01.947Z,11.00
2022-11-05T21:56:08.187Z,11.00
2022-11-05T21:59:15.837Z,11.10
2022-11-05T22:02:04.759Z,11.10
2022-11-05T22:04:54.977Z,11.10
2022-11-05T22:07:43.666Z,11.10
2022-11-05T22:10:32.298Z,11.10
2022-11-05T22:13:20.936Z,11.20
2022-11-05T22:16:11.581Z,11.10
2022-11-05T22:19:00.590Z,11.00
2022-11-05T22:21:49.742Z,11.10
2022-11-05T22:24:39.055Z,11.10
2022-11-05T22:27:27.921Z,11.10
2022-11-05T22:30:16.968Z,11.10
2022-11-05T22:33:07.114Z,11.10
2022-11-05T22:35:55.823Z,11.00
2022-11-05T22:38:44.417Z,11.00
2022-11-05T22:41:33.599Z,11.00
2022-11-05T22:44:22.246Z,11.00
2022-11-05T22:47:10.970Z,11.10
2022-11-05T22:50:01.457Z,11.10
2022-11-05T22:52:50.046Z,11.10
2022-11-05T22:55:40.851Z,11.10
2022-11-05T22:58:29.566Z,11.10
2022-11-05T23:01:19.189Z,10.90
2022-11-05T23:04:07.933Z,10.90
2022-11-05T23:07:15.526Z,11.00
2022-11-05T23:10:21.637Z,11.10
2022-11-05T23:13:10.236Z,11.00
2022-11-05T23:16:16.209Z,10.90
2022-11-05T23:19:22.091Z,11.00
2022-11-05T23:22:32.187Z,11.00
2022-11-05T23:25:23.175Z,11.00
2022-11-05T23:28:13.192Z,10.90
2022-11-05T23:31:19.296Z,10.90
2022-11-05T23:34:08.120Z,10.90
2022-11-05T23:37:14.214Z,10.90
2022-11-05T23:40:05.292Z,10.90
2022-11-05T23:43:22.718Z,10.90
2022-11-05T23:46:29.028Z,10.80
2022-11-05T23:49:17.864Z,10.80
2022-11-05T23:52:06.496Z,10.80
2022-11-05T23:54:55.172Z,10.80
2022-11-05T23:57:45.278Z,10.80
